• Join FlightAware (Why Join?)
  • Login
  • US Flag 
05:43AM EST


 

Airport Tracker/Info


-or-


 

Live Flight TrackerFlight Track Log ✈ SWA1876 ✈ 05-May-2013 ✈ KGEG - KDEN

Flight Track Log - Related Links

Times and Time Zones

All times are in EDT time to prevent confusion due to time zone crossing. See the SWA1876 flight status page for this flight to view local times or setup timezone preferences in your user account.

Time Position Orientation Groundspeed Altitude Reporting Facility
EDT Latitude Longitude Course Direction KTS MPH feet Rate Location/Type
04:30PM 47.6317 -117.5192 134° Southeast 176 203 3,000  Level Seattle Center
04:32PM 47.5056 -117.5408 138° Southeast  Level FlightAware Approximate
04:32PM 47.5772 -117.3739 138° Southeast 267 307 8,700  Level Seattle Center
04:33PM 47.5178 -117.2931 137° Southeast 294 338 11,300 3,000 Climbing Seattle Center
04:34PM 47.4494 -117.1981 137° Southeast 334 384 14,800 3,360 Climbing Seattle Center
04:35PM 47.3797 -117.1028 137° Southeast 349 402 18,100 3,000 Climbing Seattle Center
04:36PM 47.2047 -117.1149 134° Southeast  Level FlightAware Approximate
04:36PM 47.3092 -117.0086 138° Southeast 361 415 20,900  Level Seattle Center
04:37PM 47.2333 -116.9056 137° Southeast 369 425 23,500 2,400 Climbing Seattle Center
04:38PM 47.1542 -116.7983 137° Southeast 385 443 25,800 2,040 Climbing Seattle Center
04:39PM 47.0706 -116.6869 138° Southeast 405 466 27,700 2,160 Climbing Seattle Center
04:40PM 46.9681 -116.5500 138° Southeast 415 478 30,300 2,460 Climbing Seattle Center
04:41PM 46.8844 -116.4392 138° Southeast 410 472 32,800 2,160 Climbing Seattle Center
04:42PM 46.8033 -116.3317 138° Southeast 399 459 34,700 1,080 Climbing Seattle Center
04:43PM 46.7236 -116.2233 137° Southeast 393 452 35,000 120 Climbing Seattle Center
04:44PM 46.6422 -116.1206 139° Southeast 390 449 35,000  Level Seattle Center
04:45PM 46.5611 -116.0156 138° Southeast 391 450 35,000  Level Seattle Center
04:46PM 46.4806 -115.9103 138° Southeast 390 449 35,000  Level Seattle Center
04:47PM 46.4006 -115.8053 138° Southeast 390 449 35,000  Level Seattle Center
04:48PM 46.3194 -115.7017 139° Southeast 390 449 35,000  Level Seattle Center
04:49PM 46.2397 -115.5989 138° Southeast 387 445 35,000  Level Seattle Center
04:50PM 46.1581 -115.4947 139° Southeast 391 450 35,000  Level Seattle Center
04:51PM 46.0764 -115.3917 139° Southeast 391 450 35,000  Level Seattle Center
04:52PM 45.9781 -115.2664 138° Southeast 394 453 35,000  Level Seattle Center
04:53PM 45.8961 -115.1614 138° Southeast 395 455 35,000  Level Seattle Center
04:55PM 45.8169 -115.0631 139° Southeast 398 458 35,000  Level Seattle Center
04:56PM 45.7233 -114.9461 139° Southeast 399 459 35,000  Level Seattle Center
04:57PM 45.6414 -114.8447 139° Southeast 404 465 35,000  Level Seattle Center
04:58PM 45.5611 -114.7442 139° Southeast 404 465 35,000  Level Salt Lake Center
04:59PM 45.4650 -114.6250 139° Southeast 408 470 35,000  Level Salt Lake Center
05:01PM 45.2989 -114.4225 139° Southeast 410 472 35,000  Level Seattle Center
05:02PM 45.2028 -114.3044 139° Southeast 410 472 35,000  Level Seattle Center
05:03PM 45.1194 -114.2031 139° Southeast 412 474 35,000  Level Salt Lake Center
05:04PM 45.0228 -114.0833 139° Southeast 413 475 35,000  Level Salt Lake Center
05:05PM 44.9558 -113.9481 125° Southeast 409 471 35,000  Level Salt Lake Center
05:06PM 44.8953 -113.8219 124° Southeast 406 467 35,000  Level Salt Lake Center
05:07PM 44.8222 -113.6756 125° Southeast 409 471 35,000  Level Salt Lake Center
05:08PM 44.7583 -113.5464 125° Southeast 417 480 35,000 -360 Level Salt Lake Center
05:09PM 44.6844 -113.3972 125° Southeast 418 481 34,300 -660 Descending Salt Lake Center
05:11PM 44.5622 -113.1456 124° Southeast 411 473 33,000 -480 Descending Salt Lake Center
05:12PM 44.4883 -113.0000 125° Southeast 411 473 33,000  Level Salt Lake Center
05:13PM 44.4261 -112.8753 125° Southeast 409 471 33,000  Level Salt Lake Center
05:15PM 44.2906 -112.6042 125° Southeast 413 475 33,000  Level Salt Lake Center
05:17PM 44.1519 -112.3319 125° Southeast 421 484 33,000  Level Salt Lake Center
05:18PM 44.0764 -112.1864 126° Southeast 418 481 33,000  Level Salt Lake Center
05:19PM 44.0017 -112.0733 133° Southeast 416 479 33,000  Level Salt Lake Center
05:20PM 43.9425 -111.9419 122° Southeast 421 484 33,000  Level Salt Lake Center
05:21PM 43.8794 -111.7833 119° Southeast 422 486 33,000  Level Salt Lake Center
05:22PM 43.8283 -111.6467 117° Southeast 421 484 33,000  Level Salt Lake Center
05:23PM 43.7697 -111.4894 117° Southeast 415 478 33,000  Level Salt Lake Center
05:24PM 43.7242 -111.3483 114° Southeast 419 482 33,000  Level Salt Lake Center
05:25PM 43.6711 -111.1786 113° Southeast 429 494 33,000  Level Salt Lake Center
05:26PM 43.6186 -111.0375 117° Southeast 433 498 33,000  Level Salt Lake Center
05:27PM 43.5214 -110.9075 136° Southeast 436 502 33,000  Level Salt Lake Center
05:28PM 43.4386 -110.7975 136° Southeast 432 497 33,000  Level Salt Lake Center
05:29PM 43.3394 -110.6725 137° Southeast 433 498 33,000  Level Salt Lake Center
05:30PM 43.2494 -110.5586 137° Southeast 438 504 33,000  Level Salt Lake Center
05:32PM 43.1683 -110.4586 138° Southeast 432 497 33,000  Level Salt Lake Center
05:33PM 43.0706 -110.3322 137° Southeast 434 499 33,000  Level Salt Lake Center
05:34PM 42.9861 -110.2267 138° Southeast 431 496 33,000  Level Salt Lake Center
05:35PM 42.8875 -110.1025 137° Southeast 431 496 33,000  Level Salt Lake Center
05:36PM 42.8047 -109.9981 137° Southeast 425 489 33,000  Level Salt Lake Center
05:37PM 42.7094 -109.8772 137° Southeast 420 483 33,000  Level Salt Lake Center
05:38PM 42.6228 -109.7694 138° Southeast 419 482 33,000  Level Salt Lake Center
05:39PM 42.5408 -109.6667 137° Southeast 419 482 33,000  Level Salt Lake Center
05:40PM 42.4439 -109.5492 138° Southeast 419 482 33,000  Level Salt Lake Center
05:41PM 42.3622 -109.4481 138° Southeast 416 479 33,000 360 Level Salt Lake Center
05:42PM 42.2639 -109.3275 138° Southeast 426 490 33,800 780 Climbing Salt Lake Center
05:43PM 42.1789 -109.2231 138° Southeast 429 494 34,700 540 Climbing Salt Lake Center
05:44PM 42.0908 -109.1147 138° Southeast 442 509 35,000 120 Climbing Salt Lake Center
05:45PM 41.9878 -108.9894 138° Southeast 445 512 35,000  Level Salt Lake Center
05:47PM 41.7964 -108.7589 138° Southeast 443 510 35,000  Level Salt Lake Center
05:48PM 41.7083 -108.6533 138° Southeast 441 507 35,000  Level Salt Lake Center
05:49PM 41.6203 -108.5483 138° Southeast 441 507 35,000  Level Salt Lake Center
05:50PM 41.5186 -108.4261 138° Southeast 440 506 35,000  Level Salt Lake Center
05:51PM 41.4558 -108.2906 122° Southeast 449 517 35,000  Level Salt Lake Center
05:52PM 41.3942 -108.1197 116° Southeast 457 526 35,000  Level Salt Lake Center
05:53PM 41.3403 -107.9728 116° Southeast 457 526 35,000  Level Denver Center
05:55PM 41.2579 -107.7795 120° Southeast  Level FlightAware Approximate
05:55PM 41.2308 -107.6811 120° Southeast 462 532 35,000  Level Denver Center
05:56PM 41.1692 -107.5058 115° Southeast 470 541 35,000  Level Denver Center
05:57PM 41.1267 -107.3497 110° East 472 543 35,000  Level Denver Center
05:58PM 41.0747 -107.1683 111° Southeast 471 542 35,000  Level Denver Center
05:59PM 41.0289 -107.0136 111° Southeast 472 543 35,000  Level Denver Center
06:00PM 40.9772 -106.8356 111° Southeast 466 536 35,000  Level Denver Center
06:01PM 40.9300 -106.6783 112° Southeast 477 549 35,000  Level Denver Center
06:02PM 40.8769 -106.4964 111° Southeast 477 549 35,000  Level Denver Center
06:03PM 40.8297 -106.3411 112° Southeast 477 549 35,000  Level Denver Center
06:04PM 40.7831 -106.1847 111° Southeast 477 549 35,000 -900 Level Denver Center
06:05PM 40.7297 -106.0086 112° Southeast 479 551 33,200 -2,400 Descending Denver Center
06:06PM 40.6800 -105.8450 112° Southeast 477 549 30,100 -2,700 Descending Denver Center
06:07PM 40.6331 -105.6917 112° Southeast 453 521 27,700 -2,340 Descending Denver Center
06:08PM 40.5869 -105.5431 112° Southeast 437 503 25,400 -2,400 Descending Denver Center
06:10PM 40.5364 -105.3764 112° Southeast 420 483 22,800 -1,800 Descending Denver Center
06:11PM 40.4922 -105.2439 114° Southeast 395 455 21,700 -1,380 Descending Denver Center
06:12PM 40.4081 -105.1667 145° Southeast 359 413 20,000 -1,680 Descending Denver Center
06:13PM 40.3228 -105.1022 150° Southeast 355 409 18,300 -1,500 Descending Denver Center
06:14PM 40.2381 -105.0253 145° Southeast 347 399 17,000 -1,140 Descending Denver Center
06:15PM 40.1703 -104.9447 138° Southeast 332 382 16,000 -1,020 Descending Denver Center
06:16PM 40.1025 -104.8658 138° Southeast 327 376 14,900 -1,020 Descending Denver Center
06:17PM 40.0308 -104.7819 138° Southeast 317 365 13,900 -780 Descending Denver Center
06:18PM 39.9719 -104.7119 138° Southeast 283 326 13,400 -840 Descending Denver Center
06:19PM 39.9661 -104.6153 94° East 268 308 12,300 -1,200 Descending Denver Center
06:20PM 39.9664 -104.5094 90° East 267 307 11,000 -1,260 Descending Denver Center
06:20PM 39.9667 -104.4833 89° East 261 300 10,600 -1,080 Descending Denver TRACON
06:21PM 39.9667 -104.3833 90° East 247 284 9,600 -900 Descending Denver TRACON
06:22PM 39.9639 -104.3261 94° East 238 274 9,100 -300 Descending Denver Center
06:23PM 39.9108 -104.3369 189° South 242 278 9,100 -360 Level Denver Center
06:24PM 39.8950 -104.4172 256° West 227 261 8,400 -960 Descending Denver Center
06:25PM 39.8811 -104.4956 257° West 208 239 7,200 -1,080 Descending Denver Center
06:26PM 39.8833 -104.5667 272° West 157 181 6,000 -1,020 Descending Denver TRACON
06:29PM 39.8617 -104.6732 204° Southwest  Level Estimated
06:36PM 39.8617 -104.6732 North  Level Estimated
06:37PM 39.8617 -104.6732 North  Level Estimated
06:38PM 39.8617 -104.6732 North  Level Estimated